aviador You're here:

SACO Decoded Metar

CORDOBA in ARGENTINA
Report Time2018-07-22 16:00:00
UTC Time2018-07-22 16:38:32
Flight Rules ifr IFR
Wind190° at 25 Gusting to 38 kt
W.Decomp.*RWY 18: 24.4 kt HW 5.6 kt RCW
RWY 23: 20.0 kt HW 15 kt LCW
W.Rank190° ranks 22
Current wind is above 190° avg. (10.1)
Visibility4000 m
Phenomena:Blowing Widespread Dust
Clouds:N/A
Expected CloudBase > 7,200 ft AGL from Temp-Dew spread
CeilingNone
Temp14°C (ISA +2)
Dew Point-4°C (29% RH)
AAT2.5°C
QNH1020 hPa
Density Alt1,634 ft
Elevation1,555 ft
Report Wrong Elevation
Raw Report
SACO 221600Z 19025G38KT 4000 BLDU NSC 14/M04 Q1020 NOSIG=

Extra information for SACO:More info

Metar Taf Metar & Taf Last 4 Metars F.Rules Stats Wind Profile Meteogram Temp Stats Airport Information Weather charts Add Link Nearby VenuesMetar ALERT Operation Metar Decoded Social comments